Time;durP1;ratioP1;P1;durP2;ratioP2;P2;SDS_P1;SDS_P2;PMS_P1;PMS_P2;Temp;Humidity;BMP_temperature;BMP_pressure;BME280_temperature;BME280_humidity;BME280_pressure;Samples;Min_cycle;Max_cycle;Signal;HPM_P1;HPM_P2
2022/09/08 07:05:48;;;;;;;4.10;2.88;;;;;;;;;;13080516;22;1556167;-85
2022/09/08 07:10:49;;;;;;;;;;;;;;;;;;13130757;22;20018;-83
2022/09/08 07:16:02;;;;;;;8.18;4.65;;;;;;;;;;13131636;22;19905;-85
2022/09/08 07:21:23;;;;;;;5.43;3.60;;;;;;;;;;13163469;22;19995;-82
2022/09/08 07:26:25;;;;;;;;;;;;;;;;;;13175564;22;20009;-80
2022/09/08 07:31:26;;;;;;;3.53;2.72;;;;;;;;;;13174662;22;19902;-79
2022/09/08 07:36:27;;;;;;;4.53;2.70;;;;;;;;;;13140769;22;20007;-80
2022/09/08 07:41:28;;;;;;;3.55;2.50;;;;;;;;;;13127815;22;20007;-82
2022/09/08 07:46:48;;;;;;;3.67;2.45;;;;;;;;;;13102085;22;20014;-82
2022/09/08 07:52:09;;;;;;;2.83;2.30;;;;;;;;;;13107553;22;20014;-82
2022/09/08 08:03:12;;;;;;;5.32;3.90;;;;;;;;;;13141441;22;20094;-82
2022/09/08 08:08:16;;;;;;;5.05;4.10;;;;;;;;;;13141272;22;20057;-82
2022/09/08 08:13:27;;;;;;;5.43;4.35;;;;;;;;;;13138464;22;20057;-84
2022/09/08 08:18:47;;;;;;;7.05;5.18;;;;;;;;;;13142138;22;20007;-84
2022/09/08 08:24:00;;;;;;;7.93;4.63;;;;;;;;;;13139310;22;20034;-83
2022/09/08 08:29:20;;;;;;;6.03;4.20;;;;;;;;;;13124590;22;20009;-81
2022/09/08 08:34:25;;;;;;;7.13;4.40;;;;;;;;;;13123452;22;20330;-81
2022/09/08 08:39:26;;;;;;;5.60;3.17;;;;;;;;;;13125017;22;20010;-81
2022/09/08 08:44:46;;;;;;;3.97;3.08;;;;;;;;;;13133059;22;20077;-82
2022/09/08 08:49:54;;;;;;;4.80;2.95;;;;;;;;;;13129293;22;20037;-81
2022/09/08 08:55:25;;;;;;;3.83;2.75;;;;;;;;;;13128085;22;19999;-82
2022/09/08 09:00:45;;;;;;;3.88;2.90;;;;;;;;;;13131915;22;20415;-85
2022/09/08 09:05:46;;;;;;;4.50;2.58;;;;;;;;;;13140498;22;20006;-85
2022/09/08 09:11:06;;;;;;;4.63;2.22;;;;;;;;;;13140056;22;20025;-85
2022/09/08 09:16:07;;;;;;;;;;;;;;;;;;13154800;22;20032;-86
2022/09/08 09:21:29;;;;;;;3.40;2.40;;;;;;;;;;13167663;22;19989;-83
2022/09/08 09:26:35;;;;;;;3.75;2.92;;;;;;;;;;13171621;22;19999;-84
2022/09/08 09:31:36;;;;;;;3.55;2.78;;;;;;;;;;13169441;22;20002;-84
2022/09/08 09:36:47;;;;;;;4.25;3.17;;;;;;;;;;13159530;22;19991;-84
2022/09/08 09:42:28;;;;;;;4.50;3.55;;;;;;;;;;13143303;22;20010;-84
2022/09/08 09:53:09;;;;;;;5.82;4.53;;;;;;;;;;12944531;23;20000;-84
2022/09/08 09:58:22;;;;;;;6.63;4.78;;;;;;;;;;12948986;23;20048;-83
2022/09/08 10:03:44;;;;;;;6.28;4.25;;;;;;;;;;13022849;22;20025;-83
2022/09/08 10:09:05;;;;;;;6.18;4.22;;;;;;;;;;13142173;22;20006;-82
2022/09/08 10:14:29;;;;;;;4.47;3.25;;;;;;;;;;13144972;22;20439;-83
2022/09/08 10:19:39;;;;;;;5.07;3.10;;;;;;;;;;13143878;22;20011;-82
2022/09/08 10:24:48;;;;;;;4.28;3.10;;;;;;;;;;13147139;22;20104;-83
2022/09/08 10:30:22;;;;;;;4.57;2.90;;;;;;;;;;13145055;22;20082;-83
2022/09/08 10:36:12;;;;;;;4.82;2.40;;;;;;;;;;13094289;22;20030;-83
2022/09/08 10:47:39;;;;;;;3.30;2.25;;;;;;;;;;13149167;22;20003;-84
2022/09/08 10:52:51;;;;;;;4.05;2.17;;;;;;;;;;13147455;22;20002;-84
2022/09/08 11:04:00;;;;;;;2.50;2.20;;;;;;;;;;13146890;22;20044;-84
2022/09/08 11:09:25;;;;;;;3.72;2.20;;;;;;;;;;13127288;22;20589;-84
2022/09/08 11:20:11;;;;;;;3.53;2.40;;;;;;;;;;13134478;22;20003;-82
2022/09/08 11:25:15;;;;;;;4.25;2.13;;;;;;;;;;13130368;22;20284;-85
2022/09/08 11:30:39;;;;;;;3.63;2.10;;;;;;;;;;13135056;22;20086;-84
2022/09/08 11:35:46;;;;;;;3.80;2.00;;;;;;;;;;13116987;22;20071;-82
2022/09/08 11:40:54;;;;;;;4.43;1.88;;;;;;;;;;13134025;22;20628;-81
2022/09/08 11:46:05;;;;;;;2.92;1.95;;;;;;;;;;13150062;22;20021;-82
2022/09/08 11:51:50;;;;;;;3.38;2.05;;;;;;;;;;13126026;22;20045;-81
2022/09/08 11:57:11;;;;;;;3.15;1.70;;;;;;;;;;13125201;22;20011;-81
2022/09/08 12:02:16;;;;;;;3.20;1.60;;;;;;;;;;13125388;22;20018;-82
2022/09/08 12:07:36;;;;;;;2.47;1.50;;;;;;;;;;13127970;22;20458;-81
2022/09/08 12:13:03;;;;;;;3.22;1.60;;;;;;;;;;13125320;22;19995;-81
2022/09/08 12:18:07;;;;;;;2.47;1.30;;;;;;;;;;13078210;22;20041;-82
2022/09/08 12:23:11;;;;;;;3.53;1.60;;;;;;;;;;13135038;22;20007;-82
2022/09/08 12:28:22;;;;;;;3.30;1.75;;;;;;;;;;13134035;22;20037;-82
2022/09/08 12:33:38;;;;;;;4.10;1.52;;;;;;;;;;13134166;22;20018;-83
2022/09/08 12:38:51;;;;;;;2.15;1.30;;;;;;;;;;13138704;22;20010;-83
2022/09/08 12:44:02;;;;;;;3.58;1.27;;;;;;;;;;13137267;22;20013;-83
2022/09/08 12:49:25;;;;;;;3.58;1.83;;;;;;;;;;13138315;22;20446;-83
2022/09/08 13:54:41;;;;;;;3.55;1.58;;;;;;;;;;13069906;22;20084;-84
2022/09/08 13:59:55;;;;;;;2.45;1.48;;;;;;;;;;13065240;22;20037;-84
2022/09/08 14:04:59;;;;;;;2.67;1.65;;;;;;;;;;13073987;22;20102;-84
2022/09/08 14:10:26;;;;;;;2.90;1.70;;;;;;;;;;13080846;22;20019;-83
2022/09/08 14:15:29;;;;;;;3.80;1.55;;;;;;;;;;13023183;22;20004;-83
2022/09/08 14:20:36;;;;;;;3.10;1.42;;;;;;;;;;13078573;22;20058;-83
2022/09/08 14:25:37;;;;;;;3.75;1.60;;;;;;;;;;13077699;22;20454;-84
2022/09/08 14:30:41;;;;;;;2.97;1.42;;;;;;;;;;13081517;22;20027;-84
2022/09/08 14:35:46;;;;;;;3.63;1.45;;;;;;;;;;13076366;22;20014;-84
2022/09/08 14:40:55;;;;;;;2.97;1.48;;;;;;;;;;13076692;22;20022;-84
2022/09/08 14:46:07;;;;;;;3.70;1.50;;;;;;;;;;13072637;22;20038;-84
2022/09/08 14:51:15;;;;;;;3.40;1.45;;;;;;;;;;13075425;22;19999;-83
2022/09/08 15:02:32;;;;;;;5.05;1.80;;;;;;;;;;12864661;23;20016;-83
2022/09/08 15:07:48;;;;;;;6.75;1.50;;;;;;;;;;12932134;22;20045;-83
2022/09/08 15:13:01;;;;;;;3.90;1.35;;;;;;;;;;13073544;22;20003;-85
2022/09/08 15:18:15;;;;;;;4.95;2.17;;;;;;;;;;13068278;22;20113;-85
2022/09/08 15:23:38;;;;;;;2.55;1.60;;;;;;;;;;13069113;22;20003;-86
2022/09/08 15:28:40;;;;;;;1.98;1.30;;;;;;;;;;13068645;22;20007;-85
2022/09/08 15:34:11;;;;;;;3.03;1.40;;;;;;;;;;13074110;22;20120;-86
2022/09/08 15:39:35;;;;;;;2.00;1.20;;;;;;;;;;13065807;22;20102;-86
2022/09/08 15:50:52;;;;;;;2.70;1.10;;;;;;;;;;12974092;22;20007;-86
2022/09/08 16:01:45;;;;;;;;;;;;;;;;;;13086762;22;20007;-86
2022/09/08 16:07:15;;;;;;;;;;;;;;;;;;;;;
2022/09/08 16:12:21;;;;;;;4.45;1.23;;;;;;;;;;13051137;22;20144;-86
2022/09/08 16:23:20;;;;;;;3.30;1.30;;;;;;;;;;13073287;22;19999;-82
2022/09/08 16:28:33;;;;;;;4.72;1.13;;;;;;;;;;13066296;22;20133;-81
2022/09/08 16:39:50;;;;;;;3.50;1.80;;;;;;;;;;13070380;22;20067;-83
2022/09/08 16:45:22;;;;;;;1.73;1.10;;;;;;;;;;13013393;22;20290;-84
2022/09/08 16:50:32;;;;;;;2.92;1.52;;;;;;;;;;13137797;22;20429;-83
2022/09/08 16:56:17;;;;;;;4.47;1.23;;;;;;;;;;13006999;22;20353;-85
2022/09/08 17:01:37;;;;;;;4.05;1.23;;;;;;;;;;13095464;22;20034;-85
2022/09/08 17:07:06;;;;;;;2.80;1.27;;;;;;;;;;13149097;22;20018;-84
2022/09/08 17:12:26;;;;;;;4.13;1.10;;;;;;;;;;13112398;22;20082;-84
2022/09/08 17:17:49;;;;;;;4.47;1.63;;;;;;;;;;13111747;22;20011;-85
2022/09/08 17:23:15;;;;;;;4.28;1.20;;;;;;;;;;13139163;22;20468;-84
2022/09/08 17:28:41;;;;;;;2.47;1.00;;;;;;;;;;13124433;22;20067;-84
2022/09/08 17:34:05;;;;;;;2.72;0.98;;;;;;;;;;13134657;22;20338;-84
2022/09/08 17:39:29;;;;;;;3.67;1.30;;;;;;;;;;13112524;22;20006;-84
2022/09/08 17:44:40;;;;;;;6.30;1.35;;;;;;;;;;13083276;22;20013;-84
2022/09/08 17:50:00;;;;;;;2.17;1.15;;;;;;;;;;13101665;22;20007;-84
2022/09/08 17:55:26;;;;;;;3.42;1.17;;;;;;;;;;13131388;22;20034;-84
2022/09/08 18:00:30;;;;;;;4.07;1.25;;;;;;;;;;13134180;22;20018;-84
2022/09/08 18:05:31;;;;;;;4.10;1.42;;;;;;;;;;13144531;22;19999;-84
2022/09/08 18:11:05;;;;;;;4.10;1.90;;;;;;;;;;13146329;22;20010;-84
2022/09/08 18:16:29;;;;;;;3.72;1.60;;;;;;;;;;13134650;22;20019;-83
2022/09/08 18:21:32;;;;;;;4.80;2.80;;;;;;;;;;13152015;22;20034;-83
2022/09/08 18:27:33;;;;;;;2.30;1.40;;;;;;;;;;13145122;22;20003;-83
2022/09/08 18:33:16;;;;;;;3.53;2.08;;;;;;;;;;12824942;23;20008;-83
2022/09/08 18:39:15;;;;;;;2.03;1.10;;;;;;;;;;12816917;23;20009;-83
2022/09/08 18:44:33;;;;;;;2.77;1.17;;;;;;;;;;12761587;23;20017;-84
2022/09/08 18:50:09;;;;;;;2.55;0.98;;;;;;;;;;12823713;23;20009;-84
2022/09/08 18:55:25;;;;;;;1.55;0.85;;;;;;;;;;12641458;23;20089;-84
2022/09/08 19:00:26;;;;;;;4.07;1.40;;;;;;;;;;13056343;22;20003;-84
2022/09/08 19:05:35;;;;;;;1.73;1.10;;;;;;;;;;13103188;22;20068;-84
2022/09/08 19:10:37;;;;;;;2.83;1.38;;;;;;;;;;13102265;22;20010;-84
2022/09/08 19:15:44;;;;;;;1.98;1.00;;;;;;;;;;13112370;22;20051;-84
2022/09/08 19:20:54;;;;;;;2.30;0.95;;;;;;;;;;13107476;22;20011;-84
